createdAt,value
2017-10-04T00:01:17.466Z,3.63
2017-10-04T00:03:45.156Z,4.13
2017-10-04T00:06:12.804Z,4.10
2017-10-04T00:08:40.486Z,4.13
2017-10-04T00:11:08.133Z,4.40
2017-10-04T00:13:35.822Z,4.73
2017-10-04T00:16:03.466Z,4.47
2017-10-04T00:18:31.187Z,4.40
2017-10-04T00:20:59.610Z,4.20
2017-10-04T00:23:27.263Z,4.17
2017-10-04T00:25:54.956Z,4.20
2017-10-04T00:28:23.367Z,4.37
2017-10-04T00:30:51.059Z,4.23
2017-10-04T00:33:18.728Z,3.90
2017-10-04T00:35:47.203Z,4.10
2017-10-04T00:38:14.864Z,4.37
2017-10-04T00:40:42.557Z,4.37
2017-10-04T00:43:10.202Z,4.70
2017-10-04T00:45:38.742Z,4.50
2017-10-04T00:48:06.415Z,4.40
2017-10-04T00:50:34.110Z,3.93
2017-10-04T00:53:01.768Z,3.90
2017-10-04T00:55:30.291Z,3.50
2017-10-04T00:57:58.007Z,5.17
2017-10-04T01:00:26.498Z,5.23
2017-10-04T01:02:54.212Z,4.60
2017-10-04T01:05:21.939Z,5.07
2017-10-04T01:07:49.604Z,4.77
2017-10-04T01:10:17.327Z,4.67
2017-10-04T01:12:45.783Z,4.80
2017-10-04T01:15:13.522Z,4.70
2017-10-04T01:17:41.185Z,5.43
2017-10-04T01:20:08.875Z,5.00
2017-10-04T01:22:37.358Z,5.17
2017-10-04T01:25:05.803Z,4.80
2017-10-04T01:27:33.499Z,4.80
2017-10-04T01:30:01.916Z,4.57
2017-10-04T01:32:29.606Z,4.50
2017-10-04T01:34:57.267Z,4.73
2017-10-04T01:37:24.961Z,4.63
2017-10-04T01:39:52.603Z,4.70
2017-10-04T01:42:21.098Z,4.47
2017-10-04T01:44:48.750Z,5.00
2017-10-04T01:47:17.211Z,4.30
2017-10-04T01:49:44.876Z,4.47
2017-10-04T01:52:13.332Z,4.30
2017-10-04T01:54:40.975Z,4.20
2017-10-04T01:57:08.666Z,4.27
2017-10-04T01:59:36.309Z,3.90
2017-10-04T02:02:04.020Z,4.40
2017-10-04T02:04:31.668Z,4.40
2017-10-04T02:06:59.355Z,4.27
2017-10-04T02:09:27.011Z,4.67
2017-10-04T02:11:54.723Z,4.13
2017-10-04T02:14:22.375Z,4.80
2017-10-04T02:16:50.058Z,4.53
2017-10-04T02:19:18.518Z,4.00
2017-10-04T02:21:46.163Z,4.50
2017-10-04T02:24:13.850Z,4.33
2017-10-04T02:26:42.261Z,5.37
2017-10-04T02:29:09.948Z,4.03
2017-10-04T02:31:37.603Z,4.80
2017-10-04T02:34:05.291Z,4.07
2017-10-04T02:36:32.950Z,4.50
2017-10-04T02:39:00.648Z,5.27
2017-10-04T02:41:28.305Z,4.63
2017-10-04T02:43:55.999Z,6.43
2017-10-04T02:46:23.653Z,4.57
2017-10-04T02:48:51.349Z,4.50
2017-10-04T02:51:19.777Z,4.37
2017-10-04T02:53:47.468Z,4.07
2017-10-04T02:56:15.114Z,5.00
2017-10-04T02:58:42.811Z,4.50
2017-10-04T03:01:11.223Z,4.60
2017-10-04T03:03:38.906Z,4.90
2017-10-04T03:06:06.557Z,4.20
2017-10-04T03:08:34.247Z,4.10
2017-10-04T03:11:01.899Z,4.73
2017-10-04T03:13:29.628Z,4.10
2017-10-04T03:15:57.275Z,4.10
2017-10-04T03:18:24.926Z,3.73
2017-10-04T03:20:52.607Z,4.27
2017-10-04T03:23:20.268Z,3.97
2017-10-04T03:25:47.955Z,4.63
2017-10-04T03:28:15.603Z,4.80
2017-10-04T03:30:43.297Z,4.40
2017-10-04T03:33:11.722Z,3.73
2017-10-04T03:35:39.423Z,4.77
2017-10-04T03:38:07.070Z,4.00
2017-10-04T03:40:34.763Z,4.80
2017-10-04T03:43:03.179Z,4.60
2017-10-04T03:45:30.871Z,4.70
2017-10-04T03:47:58.519Z,3.60
2017-10-04T03:50:26.208Z,4.00
2017-10-04T03:52:54.623Z,4.27
2017-10-04T03:55:22.324Z,4.20
2017-10-04T03:57:49.964Z,4.40
2017-10-04T04:00:17.709Z,4.50
2017-10-04T04:02:45.354Z,3.83
2017-10-04T04:05:13.051Z,4.90
2017-10-04T04:07:40.700Z,4.90
2017-10-04T04:10:08.407Z,4.00
2017-10-04T04:12:36.828Z,4.77
2017-10-04T04:15:04.479Z,4.50
2017-10-04T04:17:32.208Z,5.17
2017-10-04T04:20:00.622Z,4.77
2017-10-04T04:22:28.319Z,5.10
2017-10-04T04:24:55.970Z,7.00
2017-10-04T04:27:23.658Z,5.10
2017-10-04T04:29:52.071Z,4.87
2017-10-04T04:32:19.759Z,5.40
2017-10-04T04:34:47.419Z,5.10
2017-10-04T04:37:15.111Z,4.73
2017-10-04T04:39:43.531Z,4.50
2017-10-04T04:42:11.235Z,4.40
2017-10-04T04:44:38.898Z,4.40
2017-10-04T04:47:06.595Z,4.40
2017-10-04T04:49:34.243Z,4.50
2017-10-04T04:52:01.935Z,4.70
2017-10-04T04:54:29.583Z,4.27
2017-10-04T04:56:57.273Z,4.40
2017-10-04T04:59:24.967Z,4.80
2017-10-04T05:01:53.434Z,4.23
2017-10-04T05:04:21.098Z,4.57
2017-10-04T05:06:49.559Z,4.47
2017-10-04T05:09:17.203Z,4.77
2017-10-04T05:11:44.911Z,4.20
2017-10-04T05:14:13.334Z,4.57
2017-10-04T05:16:40.988Z,4.33
2017-10-04T05:19:08.675Z,4.27
2017-10-04T05:21:36.323Z,4.10
2017-10-04T05:24:04.059Z,4.27
2017-10-04T05:26:31.706Z,4.30
2017-10-04T05:28:59.406Z,5.13
2017-10-04T05:31:27.056Z,5.40
2017-10-04T05:33:54.743Z,5.30
2017-10-04T05:36:22.418Z,5.37
2017-10-04T05:38:50.875Z,6.57
2017-10-04T05:41:18.527Z,6.80
2017-10-04T05:43:46.219Z,6.30
2017-10-04T05:46:14.647Z,9.60
2017-10-04T05:48:42.339Z,7.63
2017-10-04T05:51:10.759Z,6.53
2017-10-04T05:53:38.450Z,5.60
2017-10-04T05:56:06.106Z,5.00
2017-10-04T05:58:33.795Z,4.73
2017-10-04T06:01:02.227Z,5.73
2017-10-04T06:03:29.924Z,4.27
2017-10-04T06:05:57.578Z,5.27
2017-10-04T06:08:25.267Z,5.50
2017-10-04T06:10:53.684Z,6.07
2017-10-04T06:13:21.386Z,5.37
2017-10-04T06:15:49.043Z,5.50
2017-10-04T06:18:16.705Z,5.87
2017-10-04T06:20:45.184Z,6.43
2017-10-04T06:23:12.827Z,7.00
2017-10-04T06:25:40.525Z,7.07
2017-10-04T06:28:08.190Z,6.70
2017-10-04T06:30:35.927Z,7.13
2017-10-04T06:33:04.397Z,6.40
2017-10-04T06:35:32.107Z,7.30
2017-10-04T06:37:59.779Z,6.97
2017-10-04T06:40:27.479Z,6.93
2017-10-04T06:42:55.130Z,8.20
2017-10-04T06:45:22.838Z,7.30
2017-10-04T06:47:50.494Z,7.63
2017-10-04T06:50:18.255Z,6.83
2017-10-04T06:52:45.911Z,6.73
2017-10-04T06:55:13.658Z,7.07
2017-10-04T06:57:42.075Z,8.13
2017-10-04T07:00:09.774Z,7.20
2017-10-04T07:02:38.207Z,7.27
2017-10-04T07:05:05.922Z,6.83
2017-10-04T07:07:34.353Z,7.80
2017-10-04T07:10:02.057Z,7.23
2017-10-04T07:12:30.515Z,8.03
2017-10-04T07:14:58.240Z,7.50
2017-10-04T07:17:25.911Z,7.97
2017-10-04T07:19:53.599Z,6.23
2017-10-04T07:22:21.372Z,6.90
2017-10-04T07:24:49.798Z,7.23
2017-10-04T07:27:17.510Z,7.30
2017-10-04T07:29:45.928Z,5.97
2017-10-04T07:32:13.635Z,6.90
2017-10-04T07:34:41.281Z,6.87
2017-10-04T07:37:08.986Z,6.57
2017-10-04T07:39:36.694Z,6.80
2017-10-04T07:42:04.394Z,6.83
2017-10-04T07:44:32.852Z,6.70
2017-10-04T07:47:00.547Z,6.07
2017-10-04T07:49:28.195Z,6.30
2017-10-04T07:51:56.664Z,6.53
2017-10-04T07:54:25.133Z,6.90
2017-10-04T07:56:52.839Z,6.40
2017-10-04T07:59:20.490Z,5.97
2017-10-04T08:01:48.319Z,6.47
2017-10-04T08:04:15.979Z,6.13
2017-10-04T08:06:44.442Z,5.97
2017-10-04T08:09:12.105Z,6.53
2017-10-04T08:11:39.823Z,6.37
2017-10-04T08:14:07.479Z,6.00
2017-10-04T08:16:35.177Z,6.20
2017-10-04T08:19:02.830Z,5.93
2017-10-04T08:21:30.558Z,6.27
2017-10-04T08:23:58.212Z,5.90
2017-10-04T08:26:25.866Z,6.57
2017-10-04T08:28:53.610Z,5.57
2017-10-04T08:31:22.061Z,6.03
2017-10-04T08:33:49.755Z,6.00
2017-10-04T08:36:17.420Z,5.90
2017-10-04T08:38:45.121Z,5.60
2017-10-04T08:41:12.801Z,5.30
2017-10-04T08:43:40.498Z,5.93
2017-10-04T08:46:08.156Z,5.57
2017-10-04T08:48:38.795Z,5.50
2017-10-04T08:51:06.467Z,5.20
2017-10-04T08:53:34.182Z,6.50
2017-10-04T08:56:02.603Z,5.80
2017-10-04T08:58:30.312Z,5.43
2017-10-04T09:00:58.763Z,6.30
2017-10-04T09:03:26.460Z,5.97
2017-10-04T09:06:03.708Z,6.80
2017-10-04T09:08:31.411Z,5.90
2017-10-04T09:10:59.835Z,5.53
2017-10-04T09:13:27.536Z,5.63
2017-10-04T09:15:55.975Z,6.10
2017-10-04T09:18:23.688Z,5.90
2017-10-04T09:20:52.113Z,5.77
2017-10-04T09:23:19.795Z,5.60
2017-10-04T09:25:47.509Z,5.80
2017-10-04T09:28:15.155Z,4.80
2017-10-04T09:30:42.860Z,6.93
2017-10-04T09:33:10.519Z,5.97
2017-10-04T09:35:38.211Z,5.57
2017-10-04T09:38:06.631Z,5.87
2017-10-04T09:40:34.344Z,5.00
2017-10-04T09:43:02.770Z,5.10
2017-10-04T09:45:30.460Z,4.97
2017-10-04T09:47:58.123Z,4.90
2017-10-04T09:50:25.815Z,5.00
2017-10-04T09:52:54.225Z,5.43
2017-10-04T09:55:21.915Z,4.93
2017-10-04T09:57:49.568Z,4.17
2017-10-04T10:00:17.270Z,4.10
2017-10-04T10:02:45.686Z,4.57
2017-10-04T10:05:13.393Z,4.63
2017-10-04T10:07:41.824Z,4.33
2017-10-04T10:10:09.515Z,4.30
2017-10-04T10:12:37.203Z,4.60
2017-10-04T10:15:05.681Z,3.83
2017-10-04T10:17:34.890Z,3.63
2017-10-04T10:20:01.903Z,4.20
2017-10-04T10:22:30.330Z,4.50
2017-10-04T10:24:58.030Z,3.70
2017-10-04T10:27:25.684Z,3.70
2017-10-04T10:29:53.347Z,4.73
2017-10-04T10:32:21.048Z,4.33
2017-10-04T10:34:48.707Z,3.47
2017-10-04T10:37:16.410Z,2.63
2017-10-04T10:39:44.063Z,4.10
2017-10-04T10:42:11.762Z,3.63
2017-10-04T10:44:40.176Z,2.90
2017-10-04T10:47:07.870Z,2.63
2017-10-04T10:49:35.523Z,2.97
2017-10-04T10:52:03.214Z,2.60
2017-10-04T10:54:31.676Z,2.40
2017-10-04T10:56:59.369Z,2.40
2017-10-04T10:59:27.792Z,2.97
2017-10-04T11:01:55.499Z,2.20
2017-10-04T11:04:23.971Z,2.40
2017-10-04T11:06:52.428Z,2.30
2017-10-04T11:09:20.091Z,2.67
2017-10-04T11:11:47.780Z,2.60
2017-10-04T11:14:16.200Z,2.73
2017-10-04T11:16:43.895Z,2.13
2017-10-04T11:19:11.552Z,3.40
2017-10-04T11:21:39.256Z,2.60
2017-10-04T11:24:06.928Z,2.20
2017-10-04T11:26:34.647Z,2.17
2017-10-04T11:29:03.062Z,2.43
2017-10-04T11:31:31.545Z,3.40
2017-10-04T11:33:59.194Z,3.03
2017-10-04T11:36:26.838Z,2.87
2017-10-04T11:38:54.544Z,3.40
2017-10-04T11:41:22.204Z,2.47
2017-10-04T11:43:49.923Z,3.03
2017-10-04T11:46:17.575Z,2.77
2017-10-04T11:48:45.267Z,3.13
2017-10-04T11:51:12.915Z,3.90
2017-10-04T11:53:41.378Z,2.83
2017-10-04T11:56:09.028Z,2.40
2017-10-04T11:58:36.739Z,2.80
2017-10-04T12:01:04.389Z,2.17
2017-10-04T12:03:32.086Z,2.70
2017-10-04T12:06:00.511Z,2.20
2017-10-04T12:08:28.202Z,2.10
2017-10-04T12:10:55.863Z,2.60
2017-10-04T12:13:23.560Z,2.33
2017-10-04T12:15:51.213Z,2.20
2017-10-04T12:18:19.675Z,2.63
2017-10-04T12:20:47.322Z,3.13
2017-10-04T12:23:15.031Z,3.20
2017-10-04T12:25:42.693Z,2.33
2017-10-04T12:28:10.400Z,1.90
2017-10-04T12:30:38.070Z,2.13
2017-10-04T12:33:05.767Z,2.30
2017-10-04T12:35:33.448Z,2.30
2017-10-04T12:38:01.104Z,2.93
2017-10-04T12:40:28.796Z,2.10
2017-10-04T12:42:56.454Z,2.43
2017-10-04T12:45:24.160Z,1.80
2017-10-04T12:47:51.823Z,2.50
2017-10-04T12:50:19.527Z,2.47
2017-10-04T12:52:47.178Z,2.30
2017-10-04T12:55:14.872Z,2.30
2017-10-04T12:57:43.294Z,2.50
2017-10-04T13:00:10.995Z,2.60
2017-10-04T13:02:38.650Z,2.93
2017-10-04T13:05:06.347Z,2.10
2017-10-04T13:07:33.995Z,2.30
2017-10-04T13:10:02.489Z,2.33
2017-10-04T13:12:30.144Z,2.30
2017-10-04T13:14:57.839Z,1.70
2017-10-04T13:17:25.504Z,2.03
2017-10-04T13:19:53.210Z,2.00
2017-10-04T13:22:21.632Z,2.47
2017-10-04T13:24:49.331Z,2.30
2017-10-04T13:27:16.992Z,2.00
2017-10-04T13:29:44.696Z,2.07
2017-10-04T13:32:12.352Z,1.83
2017-10-04T13:34:40.090Z,2.60
2017-10-04T13:37:08.506Z,1.67
2017-10-04T13:39:36.200Z,2.60
2017-10-04T13:42:03.858Z,2.00
2017-10-04T13:44:31.551Z,2.73
2017-10-04T13:47:00.015Z,2.07
2017-10-04T13:49:28.443Z,2.30
2017-10-04T13:51:56.219Z,1.70
2017-10-04T13:54:23.875Z,1.90
2017-10-04T13:56:51.573Z,2.20
2017-10-04T13:59:19.986Z,2.10
2017-10-04T14:01:47.692Z,2.20
2017-10-04T14:04:15.345Z,2.60
2017-10-04T14:06:43.043Z,2.10
2017-10-04T14:09:11.454Z,2.10
2017-10-04T14:11:39.159Z,2.20
2017-10-04T14:14:06.810Z,1.80
2017-10-04T14:16:34.504Z,2.23
2017-10-04T14:19:02.159Z,1.67
2017-10-04T14:21:30.618Z,1.80
2017-10-04T14:23:59.047Z,2.30
2017-10-04T14:26:26.760Z,3.80
2017-10-04T14:28:55.174Z,4.00
2017-10-04T14:31:22.862Z,3.37
2017-10-04T14:33:50.516Z,4.00
2017-10-04T14:36:18.208Z,2.73
2017-10-04T14:38:45.867Z,3.07
2017-10-04T14:41:13.626Z,3.07
2017-10-04T14:43:41.289Z,2.50
2017-10-04T14:46:08.938Z,2.37
2017-10-04T14:48:36.631Z,2.57
2017-10-04T14:51:04.289Z,4.27
2017-10-04T14:53:31.985Z,2.17
2017-10-04T14:55:59.639Z,2.30
2017-10-04T14:58:27.416Z,2.20
2017-10-04T15:00:55.091Z,2.93
2017-10-04T15:03:22.787Z,2.30
2017-10-04T15:05:51.210Z,2.43
2017-10-04T15:08:18.919Z,2.30
2017-10-04T15:10:47.339Z,2.57
2017-10-04T15:13:15.027Z,2.37
2017-10-04T15:15:42.682Z,2.73
2017-10-04T15:18:10.376Z,2.27
2017-10-04T15:20:38.795Z,4.17
2017-10-04T15:23:06.494Z,5.67
2017-10-04T15:25:34.156Z,4.40
2017-10-04T15:28:01.847Z,2.80
2017-10-04T15:30:29.507Z,2.83
2017-10-04T15:32:57.211Z,3.07
2017-10-04T15:35:24.871Z,2.80
2017-10-04T15:37:52.563Z,2.97
2017-10-04T15:40:20.979Z,2.40
2017-10-04T15:42:48.684Z,2.40
2017-10-04T15:45:16.503Z,2.73
2017-10-04T15:47:44.204Z,2.60
2017-10-04T15:50:11.927Z,2.93
2017-10-04T15:52:39.567Z,2.57
2017-10-04T15:55:07.920Z,2.33
2017-10-04T15:57:35.599Z,2.93
2017-10-04T16:00:03.315Z,2.50
2017-10-04T16:02:30.982Z,2.20
2017-10-04T16:04:58.720Z,2.57
2017-10-04T16:07:26.379Z,2.20
2017-10-04T16:09:54.070Z,2.40
2017-10-04T16:12:22.491Z,2.80
2017-10-04T16:14:50.189Z,2.30
2017-10-04T16:17:17.851Z,2.60
2017-10-04T16:19:45.554Z,3.27
2017-10-04T16:22:13.216Z,2.87
2017-10-04T16:24:40.912Z,4.00
2017-10-04T16:27:08.572Z,3.20
2017-10-04T16:29:36.316Z,2.00
2017-10-04T16:32:03.975Z,2.20
2017-10-04T16:34:31.667Z,2.87
2017-10-04T16:36:59.322Z,2.57
2017-10-04T16:39:27.036Z,2.90
2017-10-04T16:41:54.751Z,2.83
2017-10-04T16:44:22.491Z,3.00
2017-10-04T16:46:50.151Z,2.77
2017-10-04T16:49:17.854Z,3.60
2017-10-04T16:51:46.288Z,3.80
2017-10-04T16:54:13.943Z,3.60
2017-10-04T16:56:41.819Z,3.30
2017-10-04T16:59:09.476Z,3.50
2017-10-04T17:01:37.175Z,3.30
2017-10-04T17:04:05.587Z,3.20
2017-10-04T17:06:33.279Z,2.97
2017-10-04T17:09:00.935Z,3.33
2017-10-04T17:11:28.635Z,4.27
2017-10-04T17:13:57.059Z,3.10
2017-10-04T17:16:24.766Z,2.70
2017-10-04T17:18:53.192Z,2.80
2017-10-04T17:21:20.882Z,2.70
2017-10-04T17:23:48.526Z,3.30
2017-10-04T17:26:16.214Z,3.13
2017-10-04T17:28:44.630Z,3.60
2017-10-04T17:31:12.326Z,3.00
2017-10-04T17:33:39.988Z,4.40
2017-10-04T17:36:07.683Z,2.90
2017-10-04T17:38:36.112Z,2.87
2017-10-04T17:41:03.815Z,3.40
2017-10-04T17:43:32.247Z,2.67
2017-10-04T17:45:59.940Z,2.67
2017-10-04T17:48:28.364Z,3.17
2017-10-04T17:50:56.066Z,3.07
2017-10-04T17:53:23.727Z,3.60
2017-10-04T17:55:51.381Z,3.63
2017-10-04T17:58:19.088Z,2.83
2017-10-04T18:00:46.804Z,3.13
2017-10-04T18:03:15.287Z,3.23
2017-10-04T18:05:42.951Z,3.03
2017-10-04T18:08:10.654Z,2.83
2017-10-04T18:10:38.318Z,2.80
2017-10-04T18:13:06.035Z,2.60
2017-10-04T18:15:34.455Z,2.83
2017-10-04T18:18:02.169Z,2.83
2017-10-04T18:20:31.623Z,2.43
2017-10-04T18:22:59.338Z,2.97
2017-10-04T18:25:27.764Z,4.10
2017-10-04T18:27:55.507Z,3.43
2017-10-04T18:30:25.127Z,3.60
2017-10-04T18:32:53.583Z,2.90
2017-10-04T18:35:21.259Z,2.00
2017-10-04T18:37:48.956Z,2.37
2017-10-04T18:40:16.651Z,2.50
2017-10-04T18:42:44.352Z,2.80
2017-10-04T18:45:12.007Z,2.60
2017-10-04T18:47:39.707Z,2.63
2017-10-04T18:50:07.361Z,2.40
2017-10-04T18:52:35.058Z,2.70
2017-10-04T18:55:02.714Z,3.00
2017-10-04T18:57:30.413Z,2.93
2017-10-04T18:59:58.116Z,2.47
2017-10-04T19:02:26.618Z,3.00
2017-10-04T19:04:54.273Z,2.73
2017-10-04T19:07:21.945Z,2.47
2017-10-04T19:09:49.648Z,2.63
2017-10-04T19:12:17.314Z,2.60
2017-10-04T19:14:45.009Z,3.57
2017-10-04T19:17:12.681Z,2.80
2017-10-04T19:19:40.381Z,3.07
2017-10-04T19:22:08.047Z,3.33
2017-10-04T19:24:35.782Z,2.93
2017-10-04T19:27:03.444Z,4.17
2017-10-04T19:29:31.227Z,2.70
2017-10-04T19:31:58.892Z,2.70
2017-10-04T19:34:26.683Z,2.70
2017-10-04T19:36:55.099Z,3.13
2017-10-04T19:39:22.804Z,2.70
2017-10-04T19:41:51.235Z,2.60
2017-10-04T19:44:18.930Z,2.87
2017-10-04T19:46:46.591Z,3.53
2017-10-04T19:49:14.453Z,3.20
2017-10-04T19:51:43.251Z,3.77
2017-10-04T19:54:11.730Z,2.93
2017-10-04T19:56:40.142Z,2.10
2017-10-04T19:59:07.882Z,2.80
2017-10-04T20:01:35.530Z,2.70
2017-10-04T20:04:03.945Z,3.07
2017-10-04T20:06:32.459Z,3.30
2017-10-04T20:09:00.119Z,2.80
2017-10-04T20:11:27.818Z,2.70
2017-10-04T20:13:55.515Z,2.70
2017-10-04T20:16:23.215Z,2.87
2017-10-04T20:18:51.651Z,2.73
2017-10-04T20:21:19.359Z,2.80
2017-10-04T20:23:47.774Z,3.93
2017-10-04T20:26:15.475Z,2.63
2017-10-04T20:28:43.131Z,2.70
2017-10-04T20:31:10.838Z,2.60
2017-10-04T20:33:38.603Z,2.80
2017-10-04T20:36:06.447Z,2.27
2017-10-04T20:38:34.969Z,2.63
2017-10-04T20:41:02.728Z,1.97
2017-10-04T20:43:30.389Z,2.20
2017-10-04T20:45:58.073Z,2.60
2017-10-04T20:48:25.722Z,2.70
2017-10-04T20:50:53.516Z,2.80
2017-10-04T20:53:21.965Z,2.70
2017-10-04T20:55:49.663Z,2.83
2017-10-04T20:58:18.082Z,2.93
2017-10-04T21:00:45.771Z,2.60
2017-10-04T21:03:13.432Z,2.93
2017-10-04T21:05:41.154Z,3.17
2017-10-04T21:08:08.811Z,2.50
2017-10-04T21:10:36.460Z,2.83
2017-10-04T21:13:04.156Z,3.13
2017-10-04T21:15:31.862Z,3.00
2017-10-04T21:18:00.323Z,2.23
2017-10-04T21:20:27.988Z,2.67
2017-10-04T21:22:56.465Z,2.50
2017-10-04T21:25:24.151Z,2.00
2017-10-04T21:27:51.988Z,2.87
2017-10-04T21:30:20.636Z,3.20
2017-10-04T21:32:48.330Z,2.50
2017-10-04T21:35:16.774Z,2.53
2017-10-04T21:37:44.463Z,2.53
2017-10-04T21:40:12.116Z,3.00
2017-10-04T21:42:39.806Z,2.97
2017-10-04T21:45:08.224Z,2.70
2017-10-04T21:47:35.920Z,2.43
2017-10-04T21:50:03.590Z,2.30
2017-10-04T21:52:32.054Z,2.40
2017-10-04T21:54:59.704Z,2.57
2017-10-04T21:57:27.447Z,3.03
2017-10-04T21:59:55.100Z,3.33
2017-10-04T22:02:22.794Z,3.03
2017-10-04T22:04:50.454Z,2.70
2017-10-04T22:07:18.919Z,2.23
2017-10-04T22:09:46.574Z,3.80
2017-10-04T22:12:14.294Z,2.93
2017-10-04T22:14:41.943Z,2.90
2017-10-04T22:17:09.647Z,3.10
2017-10-04T22:19:37.300Z,2.53
2017-10-04T22:22:05.002Z,3.13
2017-10-04T22:24:33.420Z,2.90
2017-10-04T22:27:01.080Z,2.67
2017-10-04T22:29:28.788Z,2.80
2017-10-04T22:31:56.436Z,2.53
2017-10-04T22:34:24.128Z,2.60
2017-10-04T22:36:51.779Z,2.93
2017-10-04T22:39:20.236Z,2.70
2017-10-04T22:41:47.888Z,2.60
2017-10-04T22:44:15.596Z,2.90
2017-10-04T22:46:43.263Z,2.90
2017-10-04T22:49:10.960Z,3.30
2017-10-04T22:51:38.636Z,2.70
2017-10-04T22:54:06.401Z,3.13
2017-10-04T22:56:34.062Z,3.10
2017-10-04T22:59:02.523Z,2.63
2017-10-04T23:01:30.179Z,2.40
2017-10-04T23:03:57.944Z,2.33
2017-10-04T23:06:25.607Z,2.53
2017-10-04T23:08:53.295Z,2.87
2017-10-04T23:11:21.714Z,2.70
2017-10-04T23:13:49.399Z,2.63
2017-10-04T23:16:17.055Z,2.33
2017-10-04T23:18:44.811Z,2.90
2017-10-04T23:21:12.499Z,2.80
2017-10-04T23:23:40.919Z,2.90
2017-10-04T23:26:08.624Z,2.70
2017-10-04T23:28:36.292Z,2.70
2017-10-04T23:31:04.755Z,3.00
2017-10-04T23:33:32.412Z,3.07
2017-10-04T23:36:00.103Z,2.80
2017-10-04T23:38:28.523Z,2.57
2017-10-04T23:40:56.216Z,3.07
2017-10-04T23:43:23.878Z,2.93
2017-10-04T23:45:51.574Z,2.30
2017-10-04T23:48:19.227Z,2.50
2017-10-04T23:50:46.914Z,2.67
2017-10-04T23:53:14.570Z,2.80
2017-10-04T23:55:43.036Z,2.90
2017-10-04T23:58:10.695Z,3.00
